logo
Search for airport 
image banner adimage banner adimage banner ad
image banner ad

FALOBA - Lobatse Southeast

Located in , South Africa

ICAO - , IATA -

Data provided by Airmate  

General information

Coordinates: S25°14'46" E25°52'55"
Elevation is 3743 feet MSL.
 
View others Airports in North-West

Operational data

Special qualification required
Current time UTC:
Current local time:
METAR: FBSK 232000Z /////KT CAVOK 16/M04 Q1023 NOSIG
TAF: TAF FBSK 231600Z 2318/2424 26006KT CAVOK
View NOTAMs / SUP AIP / TFR affecting this airport [VIEW]
Communications frequencies: [VIEW]

Runways:

RWY identifierQFULength (ft)Width (ft)SurfaceLDA (ft)
16110°328149SAND
34290°328149SAND

Airport contact information

Address: South Africa

Satellite view of FALOBA